sensor_id;sensor_type;location;lat;lon;timestamp;pressure;altitude;pressure_sealevel;temperature;humidity
76598;BME280;65486;53.144;18.134;2024-03-02T00:00:53;100611.30;;;7.36;97.95
76598;BME280;65486;53.144;18.134;2024-03-02T00:03:42;100611.34;;;7.36;98.40
76598;BME280;65486;53.144;18.134;2024-03-02T00:06:10;100610.87;;;7.33;98.36
76598;BME280;65486;53.144;18.134;2024-03-02T00:08:36;100608.91;;;7.29;98.51
76598;BME280;65486;53.144;18.134;2024-03-02T00:11:03;100607.84;;;7.29;98.89
76598;BME280;65486;53.144;18.134;2024-03-02T00:13:30;100606.74;;;7.29;98.71
76598;BME280;65486;53.144;18.134;2024-03-02T00:15:58;100606.38;;;7.31;98.93
76598;BME280;65486;53.144;18.134;2024-03-02T00:18:27;100606.84;;;7.30;98.93
76598;BME280;65486;53.144;18.134;2024-03-02T00:20:56;100607.92;;;7.27;98.95
76598;BME280;65486;53.144;18.134;2024-03-02T00:23:26;100599.58;;;7.24;99.16
76598;BME280;65486;53.144;18.134;2024-03-02T00:25:54;100602.02;;;7.22;99.21
76598;BME280;65486;53.144;18.134;2024-03-02T00:28:27;100603.44;;;7.21;99.49
76598;BME280;65486;53.144;18.134;2024-03-02T00:30:57;100602.55;;;7.20;99.58
76598;BME280;65486;53.144;18.134;2024-03-02T00:33:28;100597.73;;;7.17;99.72
76598;BME280;65486;53.144;18.134;2024-03-02T00:35:56;100598.52;;;7.16;99.98
76598;BME280;65486;53.144;18.134;2024-03-02T00:38:23;100601.46;;;7.13;99.93
76598;BME280;65486;53.144;18.134;2024-03-02T00:40:50;100598.73;;;7.12;99.90
76598;BME280;65486;53.144;18.134;2024-03-02T00:43:50;100598.55;;;7.11;100.00
76598;BME280;65486;53.144;18.134;2024-03-02T00:46:20;100591.58;;;7.08;100.00
76598;BME280;65486;53.144;18.134;2024-03-02T00:49:00;100591.86;;;7.06;100.00
76598;BME280;65486;53.144;18.134;2024-03-02T00:51:30;100600.38;;;7.05;100.00
76598;BME280;65486;53.144;18.134;2024-03-02T00:54:00;100606.11;;;7.04;100.00
76598;BME280;65486;53.144;18.134;2024-03-02T00:56:33;100607.67;;;7.02;100.00
76598;BME280;65486;53.144;18.134;2024-03-02T00:59:01;100604.86;;;7.00;100.00
76598;BME280;65486;53.144;18.134;2024-03-02T01:01:28;100604.40;;;6.97;100.00
76598;BME280;65486;53.144;18.134;2024-03-02T01:03:55;100600.33;;;6.96;100.00
76598;BME280;65486;53.144;18.134;2024-03-02T01:06:21;100592.36;;;6.95;100.00
76598;BME280;65486;53.144;18.134;2024-03-02T01:08:48;100590.92;;;6.95;100.00
76598;BME280;65486;53.144;18.134;2024-03-02T01:11:17;100582.58;;;6.95;100.00
76598;BME280;65486;53.144;18.134;2024-03-02T01:13:45;100576.56;;;6.93;100.00
76598;BME280;65486;53.144;18.134;2024-03-02T01:16:12;100569.45;;;6.92;100.00
76598;BME280;65486;53.144;18.134;2024-03-02T01:18:38;100573.67;;;6.92;100.00
76598;BME280;65486;53.144;18.134;2024-03-02T01:21:05;100575.35;;;6.91;100.00
76598;BME280;65486;53.144;18.134;2024-03-02T01:23:34;100566.66;;;6.91;100.00
76598;BME280;65486;53.144;18.134;2024-03-02T01:26:00;100567.26;;;6.91;100.00
76598;BME280;65486;53.144;18.134;2024-03-02T01:28:26;100565.25;;;6.89;100.00
76598;BME280;65486;53.144;18.134;2024-03-02T01:30:54;100567.73;;;6.88;100.00
76598;BME280;65486;53.144;18.134;2024-03-02T01:33:22;100565.88;;;6.88;100.00
76598;BME280;65486;53.144;18.134;2024-03-02T01:35:48;100564.66;;;6.88;100.00
76598;BME280;65486;53.144;18.134;2024-03-02T01:38:14;100558.30;;;6.89;100.00
76598;BME280;65486;53.144;18.134;2024-03-02T01:40:41;100547.80;;;6.90;100.00
76598;BME280;65486;53.144;18.134;2024-03-02T01:43:08;100539.20;;;6.90;100.00
76598;BME280;65486;53.144;18.134;2024-03-02T01:45:37;100539.24;;;6.89;100.00
76598;BME280;65486;53.144;18.134;2024-03-02T01:48:06;100536.98;;;6.88;100.00
76598;BME280;65486;53.144;18.134;2024-03-02T01:50:38;100536.46;;;6.87;100.00
76598;BME280;65486;53.144;18.134;2024-03-02T01:53:08;100533.78;;;6.85;100.00
76598;BME280;65486;53.144;18.134;2024-03-02T01:55:36;100542.58;;;6.83;100.00
76598;BME280;65486;53.144;18.134;2024-03-02T01:58:04;100550.48;;;6.81;100.00
76598;BME280;65486;53.144;18.134;2024-03-02T02:00:32;100549.96;;;6.81;100.00
76598;BME280;65486;53.144;18.134;2024-03-02T02:02:58;100549.70;;;6.80;100.00
76598;BME280;65486;53.144;18.134;2024-03-02T02:05:25;100544.19;;;6.81;100.00
76598;BME280;65486;53.144;18.134;2024-03-02T02:07:51;100539.79;;;6.79;100.00
76598;BME280;65486;53.144;18.134;2024-03-02T02:10:17;100545.09;;;6.78;100.00
76598;BME280;65486;53.144;18.134;2024-03-02T02:12:43;100549.57;;;6.77;100.00
76598;BME280;65486;53.144;18.134;2024-03-02T02:15:25;100547.44;;;6.74;100.00
76598;BME280;65486;53.144;18.134;2024-03-02T02:17:54;100542.87;;;6.71;100.00
76598;BME280;65486;53.144;18.134;2024-03-02T02:20:20;100545.30;;;6.67;100.00
76598;BME280;65486;53.144;18.134;2024-03-02T02:23:15;100547.55;;;6.63;100.00
76598;BME280;65486;53.144;18.134;2024-03-02T02:25:41;100548.34;;;6.55;100.00
76598;BME280;65486;53.144;18.134;2024-03-02T02:28:07;100544.02;;;6.49;100.00
76598;BME280;65486;53.144;18.134;2024-03-02T02:30:33;100544.62;;;6.44;100.00
76598;BME280;65486;53.144;18.134;2024-03-02T02:33:00;100548.40;;;6.35;100.00
76598;BME280;65486;53.144;18.134;2024-03-02T02:35:27;100551.41;;;6.30;100.00
76598;BME280;65486;53.144;18.134;2024-03-02T02:37:55;100552.36;;;6.28;100.00
76598;BME280;65486;53.144;18.134;2024-03-02T02:40:22;100552.59;;;6.27;100.00
76598;BME280;65486;53.144;18.134;2024-03-02T02:42:49;100554.23;;;6.26;100.00
76598;BME280;65486;53.144;18.134;2024-03-02T02:45:16;100548.92;;;6.26;100.00
76598;BME280;65486;53.144;18.134;2024-03-02T02:47:43;100548.27;;;6.28;100.00
76598;BME280;65486;53.144;18.134;2024-03-02T02:50:18;100546.82;;;6.30;100.00
76598;BME280;65486;53.144;18.134;2024-03-02T02:52:45;100546.98;;;6.30;100.00
76598;BME280;65486;53.144;18.134;2024-03-02T02:55:12;100550.95;;;6.30;100.00
76598;BME280;65486;53.144;18.134;2024-03-02T02:57:40;100548.40;;;6.29;100.00
76598;BME280;65486;53.144;18.134;2024-03-02T03:00:11;100546.41;;;6.27;100.00
76598;BME280;65486;53.144;18.134;2024-03-02T03:02:51;100544.09;;;6.27;100.00
76598;BME280;65486;53.144;18.134;2024-03-02T03:05:19;100540.88;;;6.25;100.00
76598;BME280;65486;53.144;18.134;2024-03-02T03:07:46;100545.25;;;6.22;100.00
76598;BME280;65486;53.144;18.134;2024-03-02T03:10:14;100549.46;;;6.18;100.00
76598;BME280;65486;53.144;18.134;2024-03-02T03:12:40;100548.50;;;6.13;100.00
76598;BME280;65486;53.144;18.134;2024-03-02T03:15:10;100547.06;;;6.07;100.00
76598;BME280;65486;53.144;18.134;2024-03-02T03:17:38;100550.52;;;6.05;100.00
76598;BME280;65486;53.144;18.134;2024-03-02T03:20:12;100550.47;;;6.05;100.00
76598;BME280;65486;53.144;18.134;2024-03-02T03:22:41;100559.23;;;6.05;100.00
76598;BME280;65486;53.144;18.134;2024-03-02T03:25:09;100556.02;;;6.06;100.00
76598;BME280;65486;53.144;18.134;2024-03-02T03:27:35;100549.96;;;6.05;100.00
76598;BME280;65486;53.144;18.134;2024-03-02T03:30:02;100553.28;;;6.06;100.00
76598;BME280;65486;53.144;18.134;2024-03-02T03:32:29;100549.08;;;6.07;100.00
76598;BME280;65486;53.144;18.134;2024-03-02T03:35:00;100542.45;;;6.08;100.00
76598;BME280;65486;53.144;18.134;2024-03-02T03:37:28;100541.79;;;6.11;100.00
76598;BME280;65486;53.144;18.134;2024-03-02T03:39:59;100542.26;;;6.12;100.00
76598;BME280;65486;53.144;18.134;2024-03-02T03:42:27;100539.94;;;6.11;100.00
76598;BME280;65486;53.144;18.134;2024-03-02T03:44:56;100539.20;;;6.13;100.00
76598;BME280;65486;53.144;18.134;2024-03-02T03:47:22;100531.13;;;6.16;100.00
76598;BME280;65486;53.144;18.134;2024-03-02T03:49:49;100534.96;;;6.17;100.00
76598;BME280;65486;53.144;18.134;2024-03-02T03:52:15;100532.81;;;6.17;100.00
76598;BME280;65486;53.144;18.134;2024-03-02T03:54:41;100533.41;;;6.18;100.00
76598;BME280;65486;53.144;18.134;2024-03-02T03:57:08;100530.30;;;6.19;100.00
76598;BME280;65486;53.144;18.134;2024-03-02T03:59:35;100524.54;;;6.22;100.00
76598;BME280;65486;53.144;18.134;2024-03-02T04:02:03;100526.89;;;6.23;100.00
76598;BME280;65486;53.144;18.134;2024-03-02T04:04:30;100524.13;;;6.25;100.00
76598;BME280;65486;53.144;18.134;2024-03-02T04:06:57;100521.80;;;6.26;100.00
76598;BME280;65486;53.144;18.134;2024-03-02T04:09:23;100519.98;;;6.27;100.00
76598;BME280;65486;53.144;18.134;2024-03-02T04:11:49;100519.80;;;6.28;100.00
76598;BME280;65486;53.144;18.134;2024-03-02T04:14:18;100523.17;;;6.29;100.00
76598;BME280;65486;53.144;18.134;2024-03-02T04:16:45;100519.48;;;6.29;100.00
76598;BME280;65486;53.144;18.134;2024-03-02T04:19:14;100516.03;;;6.31;100.00
76598;BME280;65486;53.144;18.134;2024-03-02T04:21:40;100513.79;;;6.30;100.00
76598;BME280;65486;53.144;18.134;2024-03-02T04:24:10;100517.52;;;6.32;100.00
76598;BME280;65486;53.144;18.134;2024-03-02T04:26:36;100516.39;;;6.32;100.00
76598;BME280;65486;53.144;18.134;2024-03-02T04:29:03;100517.20;;;6.33;100.00
76598;BME280;65486;53.144;18.134;2024-03-02T04:31:29;100517.52;;;6.31;100.00
76598;BME280;65486;53.144;18.134;2024-03-02T04:33:55;100520.02;;;6.31;100.00
76598;BME280;65486;53.144;18.134;2024-03-02T04:36:22;100516.83;;;6.31;100.00
76598;BME280;65486;53.144;18.134;2024-03-02T04:38:50;100509.62;;;6.32;100.00
76598;BME280;65486;53.144;18.134;2024-03-02T04:41:16;100499.00;;;6.32;100.00
76598;BME280;65486;53.144;18.134;2024-03-02T04:43:44;100504.65;;;6.32;100.00
76598;BME280;65486;53.144;18.134;2024-03-02T04:46:11;100515.27;;;6.32;100.00
76598;BME280;65486;53.144;18.134;2024-03-02T04:48:38;100521.66;;;6.32;100.00
76598;BME280;65486;53.144;18.134;2024-03-02T04:51:04;100526.89;;;6.33;100.00
76598;BME280;65486;53.144;18.134;2024-03-02T04:53:32;100526.52;;;6.33;100.00
76598;BME280;65486;53.144;18.134;2024-03-02T04:55:59;100525.54;;;6.32;100.00
76598;BME280;65486;53.144;18.134;2024-03-02T04:58:44;100521.50;;;6.32;100.00
76598;BME280;65486;53.144;18.134;2024-03-02T05:01:10;100523.67;;;6.32;100.00
76598;BME280;65486;53.144;18.134;2024-03-02T05:03:36;100525.39;;;6.33;100.00
76598;BME280;65486;53.144;18.134;2024-03-02T05:06:03;100525.80;;;6.33;100.00
76598;BME280;65486;53.144;18.134;2024-03-02T05:08:30;100535.27;;;6.33;100.00
76598;BME280;65486;53.144;18.134;2024-03-02T05:10:56;100536.60;;;6.34;100.00
76598;BME280;65486;53.144;18.134;2024-03-02T05:13:43;100542.92;;;6.34;100.00
76598;BME280;65486;53.144;18.134;2024-03-02T05:16:12;100546.38;;;6.34;100.00
76598;BME280;65486;53.144;18.134;2024-03-02T05:18:38;100549.00;;;6.35;100.00
76598;BME280;65486;53.144;18.134;2024-03-02T05:21:04;100547.89;;;6.37;100.00
76598;BME280;65486;53.144;18.134;2024-03-02T05:23:30;100552.98;;;6.38;100.00
76598;BME280;65486;53.144;18.134;2024-03-02T05:25:57;100548.73;;;6.41;100.00
76598;BME280;65486;53.144;18.134;2024-03-02T05:28:23;100554.59;;;6.43;100.00
76598;BME280;65486;53.144;18.134;2024-03-02T05:30:50;100555.69;;;6.42;100.00
76598;BME280;65486;53.144;18.134;2024-03-02T05:33:16;100555.87;;;6.44;100.00
76598;BME280;65486;53.144;18.134;2024-03-02T05:35:44;100556.27;;;6.46;100.00
76598;BME280;65486;53.144;18.134;2024-03-02T05:38:10;100553.66;;;6.46;100.00
76598;BME280;65486;53.144;18.134;2024-03-02T05:40:36;100549.64;;;6.47;100.00
76598;BME280;65486;53.144;18.134;2024-03-02T05:43:05;100549.60;;;6.46;100.00
76598;BME280;65486;53.144;18.134;2024-03-02T05:45:31;100558.80;;;6.48;100.00
76598;BME280;65486;53.144;18.134;2024-03-02T05:47:57;100560.65;;;6.48;100.00
76598;BME280;65486;53.144;18.134;2024-03-02T05:50:24;100572.25;;;6.49;100.00
76598;BME280;65486;53.144;18.134;2024-03-02T05:52:50;100569.34;;;6.49;100.00
76598;BME280;65486;53.144;18.134;2024-03-02T05:55:16;100570.70;;;6.49;100.00
76598;BME280;65486;53.144;18.134;2024-03-02T05:57:42;100578.16;;;6.50;100.00
76598;BME280;65486;53.144;18.134;2024-03-02T06:00:09;100581.48;;;6.49;100.00
76598;BME280;65486;53.144;18.134;2024-03-02T06:02:39;100578.62;;;6.49;100.00
76598;BME280;65486;53.144;18.134;2024-03-02T06:05:07;100585.40;;;6.49;100.00
76598;BME280;65486;53.144;18.134;2024-03-02T06:07:33;100584.66;;;6.47;100.00
76598;BME280;65486;53.144;18.134;2024-03-02T06:09:59;100583.98;;;6.47;100.00
76598;BME280;65486;53.144;18.134;2024-03-02T06:12:25;100587.84;;;6.48;100.00
76598;BME280;65486;53.144;18.134;2024-03-02T06:14:51;100584.14;;;6.50;100.00
76598;BME280;65486;53.144;18.134;2024-03-02T06:17:18;100587.02;;;6.53;100.00
76598;BME280;65486;53.144;18.134;2024-03-02T06:19:45;100584.38;;;6.54;100.00
76598;BME280;65486;53.144;18.134;2024-03-02T06:22:12;100584.02;;;6.55;100.00
76598;BME280;65486;53.144;18.134;2024-03-02T06:24:38;100586.25;;;6.57;100.00
76598;BME280;65486;53.144;18.134;2024-03-02T06:27:06;100586.02;;;6.59;100.00
76598;BME280;65486;53.144;18.134;2024-03-02T06:29:34;100585.13;;;6.59;100.00
76598;BME280;65486;53.144;18.134;2024-03-02T06:32:01;100573.13;;;6.54;100.00
76598;BME280;65486;53.144;18.134;2024-03-02T06:34:27;100589.52;;;6.60;100.00
76598;BME280;65486;53.144;18.134;2024-03-02T06:36:54;100595.72;;;6.62;100.00
76598;BME280;65486;53.144;18.134;2024-03-02T06:39:21;100590.83;;;6.63;100.00
76598;BME280;65486;53.144;18.134;2024-03-02T06:41:48;100592.09;;;6.63;100.00
76598;BME280;65486;53.144;18.134;2024-03-02T06:44:17;100595.58;;;6.64;100.00
76598;BME280;65486;53.144;18.134;2024-03-02T06:46:43;100590.58;;;6.66;100.00
76598;BME280;65486;53.144;18.134;2024-03-02T06:49:09;100588.75;;;6.67;100.00
76598;BME280;65486;53.144;18.134;2024-03-02T06:51:38;100590.06;;;6.68;100.00
76598;BME280;65486;53.144;18.134;2024-03-02T06:54:05;100577.01;;;6.68;100.00
76598;BME280;65486;53.144;18.134;2024-03-02T06:56:35;100576.08;;;6.75;100.00
76598;BME280;65486;53.144;18.134;2024-03-02T06:59:01;100571.15;;;6.79;100.00
76598;BME280;65486;53.144;18.134;2024-03-02T07:01:27;100569.31;;;6.83;100.00
76598;BME280;65486;53.144;18.134;2024-03-02T07:03:55;100570.19;;;6.86;100.00
76598;BME280;65486;53.144;18.134;2024-03-02T07:06:21;100576.42;;;6.89;100.00
76598;BME280;65486;53.144;18.134;2024-03-02T07:08:48;100589.42;;;6.90;100.00
76598;BME280;65486;53.144;18.134;2024-03-02T07:11:14;100589.36;;;6.92;100.00
76598;BME280;65486;53.144;18.134;2024-03-02T07:13:40;100584.34;;;6.96;100.00
76598;BME280;65486;53.144;18.134;2024-03-02T07:16:08;100584.20;;;7.01;100.00
76598;BME280;65486;53.144;18.134;2024-03-02T07:19:11;100587.66;;;7.11;100.00
76598;BME280;65486;53.144;18.134;2024-03-02T07:21:41;100590.68;;;7.18;99.98
76598;BME280;65486;53.144;18.134;2024-03-02T07:24:09;100589.03;;;7.25;99.89
76598;BME280;65486;53.144;18.134;2024-03-02T07:26:44;100579.90;;;7.33;99.63
76598;BME280;65486;53.144;18.134;2024-03-02T07:29:11;100585.41;;;7.41;99.52
76598;BME280;65486;53.144;18.134;2024-03-02T07:31:38;100602.10;;;7.51;99.08
76598;BME280;65486;53.144;18.134;2024-03-02T07:34:07;100617.64;;;7.58;98.85
76598;BME280;65486;53.144;18.134;2024-03-02T07:36:34;100620.71;;;7.65;98.77
76598;BME280;65486;53.144;18.134;2024-03-02T07:39:02;100616.46;;;7.75;98.36
76598;BME280;65486;53.144;18.134;2024-03-02T07:41:29;100606.98;;;7.84;97.82
76598;BME280;65486;53.144;18.134;2024-03-02T07:43:57;100609.54;;;8.06;97.66
76598;BME280;65486;53.144;18.134;2024-03-02T07:46:24;100615.17;;;8.33;96.57
76598;BME280;65486;53.144;18.134;2024-03-02T07:48:50;100616.33;;;8.68;95.70
76598;BME280;65486;53.144;18.134;2024-03-02T07:51:17;100612.76;;;9.15;94.63
76598;BME280;65486;53.144;18.134;2024-03-02T07:53:44;100598.83;;;10.07;93.81
76598;BME280;65486;53.144;18.134;2024-03-02T07:56:10;100593.48;;;11.20;88.35
76598;BME280;65486;53.144;18.134;2024-03-02T07:58:37;100589.91;;;12.23;86.51
76598;BME280;65486;53.144;18.134;2024-03-02T08:01:03;100585.77;;;13.10;84.40
76598;BME280;65486;53.144;18.134;2024-03-02T08:03:29;100590.65;;;13.46;78.86
76598;BME280;65486;53.144;18.134;2024-03-02T08:05:58;100598.81;;;13.36;77.56
76598;BME280;65486;53.144;18.134;2024-03-02T08:08:27;100598.89;;;13.61;78.52
76598;BME280;65486;53.144;18.134;2024-03-02T08:10:54;100597.98;;;13.75;73.78
76598;BME280;65486;53.144;18.134;2024-03-02T08:13:24;100599.34;;;13.90;75.66
76598;BME280;65486;53.144;18.134;2024-03-02T08:15:56;100615.20;;;13.91;78.45
76598;BME280;65486;53.144;18.134;2024-03-02T08:18:24;100611.77;;;14.16;77.34
76598;BME280;65486;53.144;18.134;2024-03-02T08:20:54;100614.45;;;14.23;76.84
76598;BME280;65486;53.144;18.134;2024-03-02T08:23:27;100614.27;;;13.86;76.13
76598;BME280;65486;53.144;18.134;2024-03-02T08:25:54;100629.75;;;13.61;76.56
76598;BME280;65486;53.144;18.134;2024-03-02T08:28:20;100631.46;;;13.27;77.75
76598;BME280;65486;53.144;18.134;2024-03-02T08:30:46;100630.71;;;13.52;77.69
76598;BME280;65486;53.144;18.134;2024-03-02T08:33:15;100616.30;;;14.57;75.66
76598;BME280;65486;53.144;18.134;2024-03-02T08:35:43;100604.27;;;15.44;72.37
76598;BME280;65486;53.144;18.134;2024-03-02T08:38:12;100597.63;;;16.05;72.96
76598;BME280;65486;53.144;18.134;2024-03-02T08:40:40;100597.23;;;16.82;70.35
76598;BME280;65486;53.144;18.134;2024-03-02T08:43:07;100600.48;;;17.21;66.86
76598;BME280;65486;53.144;18.134;2024-03-02T08:45:33;100601.84;;;17.56;67.08
76598;BME280;65486;53.144;18.134;2024-03-02T08:48:00;100599.19;;;18.01;67.09
76598;BME280;65486;53.144;18.134;2024-03-02T08:50:27;100602.23;;;18.40;61.96
76598;BME280;65486;53.144;18.134;2024-03-02T08:52:53;100604.73;;;18.26;64.22
76598;BME280;65486;53.144;18.134;2024-03-02T08:55:21;100611.98;;;17.75;65.93
76598;BME280;65486;53.144;18.134;2024-03-02T08:57:50;100620.23;;;16.78;63.30
76598;BME280;65486;53.144;18.134;2024-03-02T09:00:16;100627.92;;;15.73;66.98
76598;BME280;65486;53.144;18.134;2024-03-02T09:02:45;100628.17;;;15.05;68.39
76598;BME280;65486;53.144;18.134;2024-03-02T09:05:13;100628.11;;;14.71;68.72
76598;BME280;65486;53.144;18.134;2024-03-02T09:07:43;100627.11;;;14.72;69.37
76598;BME280;65486;53.144;18.134;2024-03-02T09:10:09;100626.75;;;15.26;68.55
76598;BME280;65486;53.144;18.134;2024-03-02T09:12:37;100627.57;;;16.18;67.54
76598;BME280;65486;53.144;18.134;2024-03-02T09:15:05;100629.33;;;16.99;64.25
76598;BME280;65486;53.144;18.134;2024-03-02T09:17:35;100626.66;;;17.18;62.79
76598;BME280;65486;53.144;18.134;2024-03-02T09:20:01;100625.04;;;16.81;65.10
76598;BME280;65486;53.144;18.134;2024-03-02T09:22:31;100630.37;;;16.65;63.48
76598;BME280;65486;53.144;18.134;2024-03-02T09:25:01;100638.30;;;16.46;62.52
76598;BME280;65486;53.144;18.134;2024-03-02T09:27:27;100636.12;;;16.11;63.59
76598;BME280;65486;53.144;18.134;2024-03-02T09:29:53;100631.27;;;15.60;64.21
76598;BME280;65486;53.144;18.134;2024-03-02T09:32:20;100628.06;;;15.09;65.37
76598;BME280;65486;53.144;18.134;2024-03-02T09:34:46;100618.49;;;14.89;66.03
76598;BME280;65486;53.144;18.134;2024-03-02T09:37:14;100615.41;;;15.26;65.81
76598;BME280;65486;53.144;18.134;2024-03-02T09:39:43;100622.27;;;15.40;65.17
76598;BME280;65486;53.144;18.134;2024-03-02T09:42:13;100625.33;;;15.40;64.05
76598;BME280;65486;53.144;18.134;2024-03-02T09:44:39;100617.84;;;15.57;64.48
76598;BME280;65486;53.144;18.134;2024-03-02T09:47:07;100620.45;;;15.62;65.00
76598;BME280;65486;53.144;18.134;2024-03-02T09:49:33;100621.50;;;15.74;64.70
76598;BME280;65486;53.144;18.134;2024-03-02T09:52:02;100618.60;;;16.15;62.87
76598;BME280;65486;53.144;18.134;2024-03-02T09:54:29;100628.13;;;16.41;62.01
76598;BME280;65486;53.144;18.134;2024-03-02T09:56:56;100624.38;;;16.26;62.78
76598;BME280;65486;53.144;18.134;2024-03-02T09:59:22;100620.09;;;16.32;60.93
76598;BME280;65486;53.144;18.134;2024-03-02T10:02:02;100625.71;;;16.14;62.09
76598;BME280;65486;53.144;18.134;2024-03-02T10:04:31;100625.81;;;16.03;62.71
76598;BME280;65486;53.144;18.134;2024-03-02T10:07:11;100632.27;;;16.39;61.72
76598;BME280;65486;53.144;18.134;2024-03-02T10:09:43;100639.08;;;17.14;60.20
76598;BME280;65486;53.144;18.134;2024-03-02T10:12:12;100630.17;;;17.57;59.56
76598;BME280;65486;53.144;18.134;2024-03-02T10:14:41;100626.11;;;17.75;58.51
76598;BME280;65486;53.144;18.134;2024-03-02T10:17:12;100620.98;;;17.91;57.34
76598;BME280;65486;53.144;18.134;2024-03-02T10:19:39;100620.89;;;17.67;57.82
76598;BME280;65486;53.144;18.134;2024-03-02T10:22:08;100620.11;;;17.54;57.88
76598;BME280;65486;53.144;18.134;2024-03-02T10:24:41;100612.12;;;17.96;57.19
76598;BME280;65486;53.144;18.134;2024-03-02T10:27:16;100609.63;;;18.48;56.30
76598;BME280;65486;53.144;18.134;2024-03-02T10:29:46;100607.95;;;18.83;55.43
76598;BME280;65486;53.144;18.134;2024-03-02T10:32:16;100609.55;;;19.23;54.63
76598;BME280;65486;53.144;18.134;2024-03-02T10:34:44;100604.79;;;19.61;54.13
76598;BME280;65486;53.144;18.134;2024-03-02T10:37:11;100600.46;;;19.75;50.80
76598;BME280;65486;53.144;18.134;2024-03-02T10:39:39;100605.27;;;19.53;53.81
76598;BME280;65486;53.144;18.134;2024-03-02T10:42:08;100600.02;;;19.75;52.62
76598;BME280;65486;53.144;18.134;2024-03-02T10:44:36;100591.30;;;19.74;51.77
76598;BME280;65486;53.144;18.134;2024-03-02T10:47:05;100599.13;;;19.50;51.23
76598;BME280;65486;53.144;18.134;2024-03-02T10:49:32;100600.71;;;19.44;51.83
76598;BME280;65486;53.144;18.134;2024-03-02T10:51:59;100600.90;;;19.16;53.07
76598;BME280;65486;53.144;18.134;2024-03-02T10:54:26;100602.48;;;18.72;53.38
76598;BME280;65486;53.144;18.134;2024-03-02T10:56:59;100590.40;;;18.42;54.34
76598;BME280;65486;53.144;18.134;2024-03-02T11:01:55;100600.94;;;17.82;54.64
76598;BME280;65486;53.144;18.134;2024-03-02T11:04:25;100601.58;;;17.51;55.14
76598;BME280;65486;53.144;18.134;2024-03-02T11:07:00;100594.97;;;17.11;54.73
76598;BME280;65486;53.144;18.134;2024-03-02T11:09:30;100600.13;;;16.71;56.30
76598;BME280;65486;53.144;18.134;2024-03-02T11:14:55;100591.85;;;16.00;57.19
76598;BME280;65486;53.144;18.134;2024-03-02T11:17:25;100590.75;;;15.80;58.31
76598;BME280;65486;53.144;18.134;2024-03-02T11:19:53;100591.80;;;15.69;58.44
76598;BME280;65486;53.144;18.134;2024-03-02T11:22:20;100592.55;;;15.45;58.83
76598;BME280;65486;53.144;18.134;2024-03-02T11:24:52;100596.55;;;15.23;59.18
76598;BME280;65486;53.144;18.134;2024-03-02T11:33:08;100592.91;;;14.72;60.70
76598;BME280;65486;53.144;18.134;2024-03-02T11:35:36;100590.06;;;14.56;61.24
76598;BME280;65486;53.144;18.134;2024-03-02T11:38:04;100587.55;;;14.51;61.57
76598;BME280;65486;53.144;18.134;2024-03-02T11:41:07;100593.25;;;14.40;61.84
76598;BME280;65486;53.144;18.134;2024-03-02T11:47:56;100589.60;;;14.01;62.87
76598;BME280;65486;53.144;18.134;2024-03-02T11:50:47;100587.23;;;13.86;63.35
76598;BME280;65486;53.144;18.134;2024-03-02T11:53:17;100585.69;;;13.87;63.57
76598;BME280;65486;53.144;18.134;2024-03-02T11:55:49;100583.23;;;13.77;63.63
76598;BME280;65486;53.144;18.134;2024-03-02T11:58:19;100580.73;;;13.72;63.86
76598;BME280;65486;53.144;18.134;2024-03-02T12:00:55;100579.59;;;13.66;64.09
76598;BME280;65486;53.144;18.134;2024-03-02T12:03:26;100580.95;;;13.66;64.74
76598;BME280;65486;53.144;18.134;2024-03-02T12:05:54;100581.14;;;13.72;64.89
76598;BME280;65486;53.144;18.134;2024-03-02T12:08:21;100582.39;;;13.80;64.60
76598;BME280;65486;53.144;18.134;2024-03-02T12:10:57;100582.71;;;13.86;64.52
76598;BME280;65486;53.144;18.134;2024-03-02T12:13:27;100576.34;;;13.82;64.39
76598;BME280;65486;53.144;18.134;2024-03-02T12:15:57;100578.64;;;13.80;64.53
76598;BME280;65486;53.144;18.134;2024-03-02T12:18:27;100580.27;;;13.82;64.68
76598;BME280;65486;53.144;18.134;2024-03-02T12:20:54;100575.64;;;13.81;64.87
76598;BME280;65486;53.144;18.134;2024-03-02T12:23:45;100579.02;;;13.69;65.30
76598;BME280;65486;53.144;18.134;2024-03-02T12:26:12;100580.11;;;13.62;65.71
76598;BME280;65486;53.144;18.134;2024-03-02T12:28:39;100574.83;;;13.55;65.86
76598;BME280;65486;53.144;18.134;2024-03-02T12:31:07;100573.71;;;13.47;65.92
76598;BME280;65486;53.144;18.134;2024-03-02T12:33:37;100577.30;;;13.35;66.09
76598;BME280;65486;53.144;18.134;2024-03-02T12:36:04;100578.68;;;13.22;66.30
76598;BME280;65486;53.144;18.134;2024-03-02T12:38:44;100575.79;;;13.16;66.70
76598;BME280;65486;53.144;18.134;2024-03-02T12:41:10;100568.23;;;13.14;66.87
76598;BME280;65486;53.144;18.134;2024-03-02T12:43:39;100567.91;;;13.12;66.91
76598;BME280;65486;53.144;18.134;2024-03-02T12:46:07;100570.83;;;13.14;67.16
76598;BME280;65486;53.144;18.134;2024-03-02T12:48:47;100571.23;;;13.14;67.19
76598;BME280;65486;53.144;18.134;2024-03-02T12:51:15;100571.84;;;13.17;67.41
76598;BME280;65486;53.144;18.134;2024-03-02T12:53:43;100573.84;;;13.17;66.97
76598;BME280;65486;53.144;18.134;2024-03-02T12:56:09;100569.94;;;13.10;67.40
76598;BME280;65486;53.144;18.134;2024-03-02T12:58:42;100568.16;;;13.05;67.93
76598;BME280;65486;53.144;18.134;2024-03-02T13:01:10;100570.95;;;13.03;68.38
76598;BME280;65486;53.144;18.134;2024-03-02T13:03:41;100576.59;;;13.03;69.43